Time;durP1;ratioP1;P1;durP2;ratioP2;P2;SDS_P1;SDS_P2;PMS_P1;PMS_P2;Temp;Humidity;BMP_temperature;BMP_pressure;BME280_temperature;BME280_humidity;BME280_pressure;Samples;Min_cycle;Max_cycle;Signal;HPM_P1;HPM_P2
2023/09/17 00:00:11;;;;;;;;;;;18.30;71.60;;;;;;4104750;28;19915;-87
2023/09/17 00:02:32;;;;;;;;;;;18.20;71.40;;;;;;4099165;28;20281;-86
2023/09/17 00:04:49;;;;;;;;;;;18.20;71.40;;;;;;4103819;28;19930;-88
2023/09/17 00:07:10;;;;;;;;;;;18.20;71.30;;;;;;4100957;28;19921;-87
2023/09/17 00:09:34;;;;;;;;;;;18.10;71.10;;;;;;4102455;28;20020;-86
2023/09/17 00:11:54;;;;;;;;;;;18.10;71.10;;;;;;4104981;28;19922;-87
2023/09/17 00:14:15;;;;;;;;;;;18.10;71.40;;;;;;4114567;28;19922;-88
2023/09/17 00:16:38;;;;;;;;;;;18.10;71.60;;;;;;4101493;28;19929;-87
2023/09/17 00:18:59;;;;;;;;;;;18.10;71.70;;;;;;4101920;28;19922;-87
2023/09/17 00:21:19;;;;;;;;;;;17.90;71.60;;;;;;4105056;28;19918;-87
2023/09/17 00:23:40;;;;;;;;;;;18.10;71.80;;;;;;4103237;28;19925;-87
2023/09/17 00:26:01;;;;;;;;;;;18.00;71.90;;;;;;4108085;28;19921;-88
2023/09/17 00:28:22;;;;;;;;;;;17.90;72.00;;;;;;4108190;28;19922;-87
2023/09/17 00:30:42;;;;;;;;;;;17.90;72.00;;;;;;4103523;28;19918;-87
2023/09/17 00:33:03;;;;;;;;;;;17.90;72.00;;;;;;4104583;28;20033;-87
2023/09/17 00:35:05;;;;;;;;;;;17.90;72.00;;;;;;4107691;28;19910;-87
2023/09/17 00:37:07;;;;;;;;;;;17.80;71.90;;;;;;4107913;28;19965;-87
2023/09/17 00:39:08;;;;;;;;;;;17.80;72.10;;;;;;4124339;28;19922;-87
2023/09/17 00:41:09;;;;;;;;;;;17.80;72.10;;;;;;4103673;28;20273;-87
2023/09/17 00:43:30;;;;;;;;;;;17.80;72.10;;;;;;4100874;28;19919;-86
2023/09/17 00:45:50;;;;;;;;;;;17.70;72.00;;;;;;4101941;28;19925;-87
2023/09/17 00:48:11;;;;;;;;;;;17.70;72.10;;;;;;4104597;28;19924;-87
2023/09/17 00:50:12;;;;;;;;;;;17.80;72.10;;;;;;4100323;28;20036;-87
2023/09/17 00:52:15;;;;;;;;;;;17.70;72.00;;;;;;4103700;28;19961;-88
2023/09/17 00:54:16;;;;;;;;;;;17.70;71.90;;;;;;4099889;28;21231;-87
2023/09/17 00:56:16;;;;;;;;;;;17.70;71.70;;;;;;4101044;28;20069;-87
2023/09/17 00:58:17;;;;;;;;;;;17.70;71.90;;;;;;4107787;28;19918;-87
2023/09/17 01:00:21;;;;;;;;;;;17.60;72.00;;;;;;4102227;28;19922;-87
2023/09/17 01:02:23;;;;;;;;;;;17.60;72.10;;;;;;4104518;28;20407;-88
2023/09/17 01:04:24;;;;;;;;;;;17.60;72.50;;;;;;4099505;28;19914;-87
2023/09/17 01:06:24;;;;;;;;;;;17.60;72.40;;;;;;4106373;28;19918;-87
2023/09/17 01:08:27;;;;;;;;;;;17.60;72.40;;;;;;4101061;28;19933;-87
2023/09/17 01:10:48;;;;;;;;;;;17.60;73.20;;;;;;4099331;28;19921;-88
2023/09/17 01:13:09;;;;;;;;;;;17.60;72.50;;;;;;4116843;28;19933;-86
2023/09/17 01:15:30;;;;;;;;;;;17.60;72.50;;;;;;4122698;28;19974;-85
2023/09/17 01:17:53;;;;;;;;;;;17.60;72.60;;;;;;4108317;28;19933;-87
2023/09/17 01:20:24;;;;;;;;;;;17.50;72.60;;;;;;4104011;28;19922;-87
2023/09/17 01:22:46;;;;;;;;;;;17.50;72.60;;;;;;4104668;28;19922;-88
2023/09/17 01:25:11;;;;;;;;;;;17.50;72.60;;;;;;4098098;28;20005;-87
2023/09/17 01:27:38;;;;;;;;;;;17.50;72.60;;;;;;4102361;28;20038;-87
2023/09/17 01:29:59;;;;;;;;;;;17.50;73.50;;;;;;4102513;28;19929;-87
2023/09/17 01:32:20;;;;;;;;;;;17.60;72.80;;;;;;4101331;28;19925;-87
2023/09/17 01:34:41;;;;;;;;;;;17.50;72.80;;;;;;4103702;28;19915;-87
2023/09/17 01:37:05;;;;;;;;;;;17.50;72.80;;;;;;4120011;28;19914;-86
2023/09/17 01:39:27;;;;;;;;;;;17.50;72.80;;;;;;4124456;28;19926;-86
2023/09/17 01:41:49;;;;;;;;;;;17.50;72.80;;;;;;4123558;28;19997;-86
2023/09/17 01:44:10;;;;;;;;;;;17.40;72.60;;;;;;4126730;28;19926;-85
2023/09/17 01:46:11;;;;;;;;;;;17.40;72.60;;;;;;4125889;28;19906;-86
2023/09/17 01:48:13;;;;;;;;;;;17.40;72.80;;;;;;4124722;28;20016;-86
2023/09/17 01:50:17;;;;;;;;;;;17.40;72.70;;;;;;4107646;28;19918;-87
2023/09/17 01:52:22;;;;;;;;;;;17.40;72.80;;;;;;4104244;28;19922;-85
2023/09/17 01:54:23;;;;;;;;;;;17.40;72.80;;;;;;4120634;28;19933;-86
2023/09/17 01:56:24;;;;;;;;;;;17.40;72.80;;;;;;4125274;28;19914;-87
2023/09/17 01:58:25;;;;;;;;;;;17.40;72.80;;;;;;4110171;28;20029;-87
2023/09/17 02:00:28;;;;;;;;;;;17.40;72.80;;;;;;4135931;28;19921;-86
2023/09/17 02:02:28;;;;;;;;;;;17.40;72.80;;;;;;4138790;28;19921;-86
2023/09/17 02:04:30;;;;;;;;;;;17.40;72.90;;;;;;4126455;28;19918;-86
2023/09/17 02:06:31;;;;;;;;;;;17.30;72.80;;;;;;4138139;28;19934;-85
2023/09/17 02:08:32;;;;;;;;;;;17.40;72.90;;;;;;4119041;28;19914;-85
2023/09/17 02:10:33;;;;;;;;;;;17.30;72.90;;;;;;4119673;28;20362;-85
2023/09/17 02:12:54;;;;;;;;;;;17.40;73.00;;;;;;4117008;28;20016;-87
2023/09/17 02:15:14;;;;;;;;;;;17.30;73.00;;;;;;4099675;28;19949;-86
2023/09/17 02:17:35;;;;;;;;;;;17.30;73.00;;;;;;4111728;28;19917;-87
2023/09/17 02:19:56;;;;;;;;;;;17.30;72.90;;;;;;4105982;28;19922;-87
2023/09/17 02:22:16;;;;;;;;;;;17.30;72.80;;;;;;4105691;28;19910;-87
2023/09/17 02:24:37;;;;;;;;;;;17.30;72.80;;;;;;4104123;28;19965;-87
2023/09/17 02:26:59;;;;;;;;;;;17.30;73.00;;;;;;4105425;28;19918;-87
2023/09/17 02:29:20;;;;;;;;;;;17.30;73.00;;;;;;4102775;28;19922;-87
2023/09/17 02:31:41;;;;;;;;;;;17.30;73.10;;;;;;4104706;28;19958;-88
2023/09/17 02:34:02;;;;;;;;;;;17.30;73.10;;;;;;4114281;28;19921;-87
2023/09/17 02:36:03;;;;;;;;;;;17.30;73.10;;;;;;4103256;28;19925;-87
2023/09/17 02:38:03;;;;;;;;;;;17.30;73.20;;;;;;4118517;28;19921;-86
2023/09/17 02:40:08;;;;;;;;;;;17.20;73.10;;;;;;4101452;28;19919;-87
2023/09/17 02:42:09;;;;;;;;;;;17.20;73.00;;;;;;4102995;28;19977;-87
2023/09/17 02:44:14;;;;;;;;;;;17.20;73.00;;;;;;4099465;28;19910;-87
2023/09/17 02:46:16;;;;;;;;;;;17.20;73.00;;;;;;4101712;28;19922;-87
2023/09/17 02:48:16;;;;;;;;;;;17.20;73.00;;;;;;4102258;28;19921;-87
2023/09/17 02:50:19;;;;;;;;;;;17.20;73.10;;;;;;4097298;28;19918;-87
2023/09/17 02:52:20;;;;;;;;;;;17.20;73.00;;;;;;4103849;28;20268;-87
2023/09/17 02:54:40;;;;;;;;;;;17.20;73.00;;;;;;4099416;28;19961;-87
2023/09/17 02:57:01;;;;;;;;;;;17.20;73.00;;;;;;4101480;28;19918;-87
2023/09/17 02:59:21;;;;;;;;;;;17.10;73.00;;;;;;4102157;28;19929;-87
2023/09/17 03:01:42;;;;;;;;;;;17.10;72.90;;;;;;4096264;28;19925;-87
2023/09/17 03:03:42;;;;;;;;;;;17.10;72.90;;;;;;4098878;28;19944;-87
2023/09/17 03:06:05;;;;;;;;;;;17.00;72.80;;;;;;4099768;28;19918;-86
2023/09/17 03:08:26;;;;;;;;;;;17.00;72.80;;;;;;4100629;28;19926;-87
2023/09/17 03:10:56;;;;;;;;;;;17.00;72.70;;;;;;4093015;28;19958;-86
2023/09/17 03:13:17;;;;;;;;;;;16.90;72.60;;;;;;4103002;28;19925;-86
2023/09/17 03:15:37;;;;;;;;;;;16.90;72.40;;;;;;4100829;28;19918;-87
2023/09/17 03:17:58;;;;;;;;;;;16.90;72.40;;;;;;4105291;28;20590;-86
2023/09/17 03:20:22;;;;;;;;;;;16.90;72.50;;;;;;4115550;28;20004;-87
2023/09/17 03:22:46;;;;;;;;;;;16.80;72.70;;;;;;4102693;28;19977;-86
2023/09/17 03:25:06;;;;;;;;;;;16.80;72.70;;;;;;4101131;28;19962;-87
2023/09/17 03:27:07;;;;;;;;;;;16.80;72.80;;;;;;4100405;28;19914;-86
2023/09/17 03:29:08;;;;;;;;;;;16.70;72.70;;;;;;4100629;28;19988;-88
2023/09/17 03:31:08;;;;;;;;;;;16.70;72.60;;;;;;4100764;28;20410;-85
2023/09/17 03:33:09;;;;;;;;;;;16.70;72.60;;;;;;4103020;28;19921;-87
2023/09/17 03:35:10;;;;;;;;;;;16.70;72.50;;;;;;4103204;28;19926;-87
2023/09/17 03:37:13;;;;;;;;;;;16.50;72.40;;;;;;4094989;28;19918;-87
2023/09/17 03:39:13;;;;;;;;;;;16.60;72.50;;;;;;4110729;28;19921;-87
2023/09/17 03:41:15;;;;;;;;;;;16.50;72.50;;;;;;4102907;28;19914;-87
2023/09/17 03:43:34;;;;;;;;;;;16.50;72.50;;;;;;4103647;28;19918;-86
2023/09/17 03:45:35;;;;;;;;;;;16.40;72.50;;;;;;4103813;28;19922;-87
2023/09/17 03:47:55;;;;;;;;;;;16.40;72.50;;;;;;4106158;28;19928;-85
2023/09/17 03:50:16;;;;;;;;;;;16.30;72.50;;;;;;4101906;28;19925;-87
2023/09/17 03:52:37;;;;;;;;;;;16.40;73.30;;;;;;4102197;28;19946;-86
2023/09/17 03:54:58;;;;;;;;;;;16.30;72.60;;;;;;4098958;28;19926;-86
2023/09/17 03:57:19;;;;;;;;;;;16.20;72.60;;;;;;4099765;28;19922;-86
2023/09/17 03:59:39;;;;;;;;;;;16.20;72.50;;;;;;4105179;28;19922;-86
2023/09/17 04:02:00;;;;;;;;;;;16.10;72.40;;;;;;4112382;28;20049;-84
2023/09/17 04:04:20;;;;;;;;;;;16.10;72.50;;;;;;4126871;28;19910;-84
2023/09/17 04:06:41;;;;;;;;;;;16.10;72.40;;;;;;4107363;28;19928;-86
2023/09/17 04:09:02;;;;;;;;;;;16.00;72.40;;;;;;4108282;28;20005;-86
2023/09/17 04:11:22;;;;;;;;;;;16.00;72.50;;;;;;4104355;28;20060;-86
2023/09/17 04:13:40;;;;;;;;;;;16.00;72.60;;;;;;4108325;28;19930;-85
2023/09/17 04:15:41;;;;;;;;;;;15.90;72.60;;;;;;4101200;28;19918;-86
2023/09/17 04:17:42;;;;;;;;;;;15.90;72.60;;;;;;4109146;28;19918;-85
2023/09/17 04:19:42;;;;;;;;;;;15.90;72.60;;;;;;4125466;28;19969;-85
2023/09/17 04:21:44;;;;;;;;;;;15.80;72.60;;;;;;4108880;28;20011;-84
2023/09/17 04:23:45;;;;;;;;;;;15.80;72.60;;;;;;4109221;28;19940;-85
2023/09/17 04:25:46;;;;;;;;;;;15.80;72.50;;;;;;4108038;28;19922;-85
2023/09/17 04:27:54;;;;;;;;;;;15.80;72.50;;;;;;4127554;28;19974;-84
2023/09/17 04:29:55;;;;;;;;;;;15.80;72.40;;;;;;4127911;28;20013;-82
2023/09/17 04:32:16;;;;;;;;;;;15.70;72.50;;;;;;4127326;28;19923;-85
2023/09/17 04:34:37;;;;;;;;;;;15.60;72.40;;;;;;4109865;28;19919;-86
2023/09/17 04:36:58;;;;;;;;;;;15.60;72.50;;;;;;4107981;28;19978;-86
2023/09/17 04:39:19;;;;;;;;;;;15.50;72.50;;;;;;4107018;28;19933;-86
2023/09/17 04:41:40;;;;;;;;;;;15.50;72.60;;;;;;4104200;28;19929;-86
2023/09/17 04:44:07;;;;;;;;;;;15.50;72.50;;;;;;4105231;28;20001;-86
2023/09/17 04:46:28;;;;;;;;;;;15.40;72.40;;;;;;4102781;28;19965;-85
2023/09/17 04:48:48;;;;;;;;;;;15.40;72.40;;;;;;4119771;28;20483;-86
2023/09/17 04:51:12;;;;;;;;;;;15.40;72.60;;;;;;4105535;28;19915;-86
2023/09/17 04:53:33;;;;;;;;;;;15.40;72.70;;;;;;4105708;28;19921;-86
2023/09/17 04:55:33;;;;;;;;;;;15.30;72.60;;;;;;4101534;28;19918;-86
2023/09/17 04:57:35;;;;;;;;;;;15.30;72.60;;;;;;4117914;28;20405;-85
2023/09/17 04:59:35;;;;;;;;;;;15.20;72.60;;;;;;4102359;28;20388;-86
2023/09/17 05:01:36;;;;;;;;;;;15.30;72.70;;;;;;4099115;28;19973;-85
2023/09/17 05:03:57;;;;;;;;;;;15.20;73.40;;;;;;4103496;28;19918;-85
2023/09/17 05:06:04;;;;;;;;;;;15.20;72.70;;;;;;4105968;28;19921;-85
2023/09/17 05:08:24;;;;;;;;;;;15.20;72.70;;;;;;4103570;28;19929;-85
2023/09/17 05:10:45;;;;;;;;;;;15.10;72.70;;;;;;4099774;28;19950;-86
2023/09/17 05:13:05;;;;;;;;;;;15.10;72.70;;;;;;4100490;28;19925;-86
2023/09/17 05:15:26;;;;;;;;;;;15.20;72.80;;;;;;4101000;28;19923;-87
2023/09/17 05:17:46;;;;;;;;;;;15.10;72.90;;;;;;4103514;28;19914;-86
2023/09/17 05:20:07;;;;;;;;;;;15.10;72.90;;;;;;4102609;28;20395;-86
2023/09/17 05:22:30;;;;;;;;;;;15.00;72.90;;;;;;4105188;28;20078;-85
2023/09/17 05:24:51;;;;;;;;;;;15.00;72.70;;;;;;4101037;28;19914;-85
2023/09/17 05:27:11;;;;;;;;;;;15.00;72.70;;;;;;4103239;28;19918;-83
2023/09/17 05:29:15;;;;;;;;;;;15.00;72.80;;;;;;4103240;28;19922;-87
2023/09/17 05:31:16;;;;;;;;;;;15.00;72.80;;;;;;4104311;28;20464;-85
2023/09/17 05:33:16;;;;;;;;;;;14.90;72.80;;;;;;4098212;28;19926;-85
2023/09/17 05:35:18;;;;;;;;;;;14.90;72.80;;;;;;4101971;28;19918;-86
2023/09/17 05:37:39;;;;;;;;;;;14.90;72.80;;;;;;4098431;28;19930;-86
2023/09/17 05:39:59;;;;;;;;;;;14.80;72.80;;;;;;4108754;28;19922;-86
2023/09/17 05:42:20;;;;;;;;;;;14.80;73.00;;;;;;4100434;28;19929;-85
2023/09/17 05:44:40;;;;;;;;;;;14.80;73.00;;;;;;4102880;28;19938;-86
2023/09/17 05:47:01;;;;;;;;;;;14.80;73.20;;;;;;4097768;28;19922;-86
2023/09/17 05:49:22;;;;;;;;;;;14.80;73.30;;;;;;4099565;28;19922;-85
2023/09/17 05:51:42;;;;;;;;;;;14.70;73.30;;;;;;4109614;28;19918;-84
2023/09/17 05:54:03;;;;;;;;;;;14.70;73.30;;;;;;4099465;28;19926;-85
2023/09/17 05:56:24;;;;;;;;;;;14.70;73.40;;;;;;4095848;28;20507;-86
2023/09/17 05:58:24;;;;;;;;;;;14.70;73.40;;;;;;4102163;28;20016;-86
2023/09/17 06:00:25;;;;;;;;;;;14.80;73.40;;;;;;4101785;28;19918;-85
2023/09/17 06:02:32;;;;;;;;;;;14.70;73.40;;;;;;4101117;28;19926;-85
2023/09/17 06:04:33;;;;;;;;;;;14.80;73.60;;;;;;4089587;28;20355;-85
2023/09/17 06:06:54;;;;;;;;;;;14.80;73.60;;;;;;4099174;28;19918;-84
2023/09/17 06:09:14;;;;;;;;;;;14.80;73.50;;;;;;4094101;28;20399;-85
2023/09/17 06:11:35;;;;;;;;;;;14.80;73.70;;;;;;4093466;28;19958;-85
2023/09/17 06:13:56;;;;;;;;;;;14.90;73.70;;;;;;4103242;28;19977;-86
2023/09/17 06:16:16;;;;;;;;;;;14.80;73.90;;;;;;4094513;28;19958;-86
2023/09/17 06:18:37;;;;;;;;;;;14.80;74.50;;;;;;4099824;28;19964;-85
2023/09/17 06:20:58;;;;;;;;;;;14.80;74.50;;;;;;4099571;28;19926;-84
2023/09/17 06:23:19;;;;;;;;;;;14.80;74.30;;;;;;4099012;28;19922;-85
2023/09/17 06:25:40;;;;;;;;;;;14.90;74.60;;;;;;4102968;28;19918;-86
2023/09/17 06:27:40;;;;;;;;;;;14.80;74.50;;;;;;4096887;28;19918;-84
2023/09/17 06:29:41;;;;;;;;;;;14.90;74.80;;;;;;4100145;28;19918;-86
2023/09/17 06:31:44;;;;;;;;;;;14.90;75.00;;;;;;4100626;28;19926;-86
2023/09/17 06:33:45;;;;;;;;;;;14.90;75.00;;;;;;4101740;28;19914;-84
2023/09/17 06:35:46;;;;;;;;;;;15.00;75.30;;;;;;4101671;28;20016;-85
2023/09/17 06:37:46;;;;;;;;;;;15.00;75.40;;;;;;4102822;28;19918;-86
2023/09/17 06:39:47;;;;;;;;;;;15.10;75.50;;;;;;4092343;28;19915;-85
2023/09/17 06:41:47;;;;;;;;;;;15.10;75.50;;;;;;4103402;28;19976;-84
2023/09/17 06:43:51;;;;;;;;;;;15.20;75.50;;;;;;4086146;28;19919;-85
2023/09/17 06:46:12;;;;;;;;;;;15.20;75.60;;;;;;4099726;28;19913;-86
2023/09/17 06:48:33;;;;;;;;;;;15.30;75.80;;;;;;4094645;28;19926;-86
2023/09/17 06:50:33;;;;;;;;;;;15.40;76.20;;;;;;4106005;28;19908;-84
2023/09/17 06:52:54;;;;;;;;;;;15.40;76.40;;;;;;4093341;28;19997;-85
2023/09/17 06:55:14;;;;;;;;;;;15.50;76.50;;;;;;4098919;28;20053;-85
2023/09/17 06:57:35;;;;;;;;;;;15.50;76.40;;;;;;4098884;28;20459;-85
2023/09/17 06:59:55;;;;;;;;;;;15.60;76.40;;;;;;4096919;28;19922;-85
2023/09/17 07:02:17;;;;;;;;;;;15.70;77.10;;;;;;4091725;28;20549;-85
2023/09/17 07:04:37;;;;;;;;;;;15.70;77.60;;;;;;4095336;28;20012;-84
2023/09/17 07:06:38;;;;;;;;;;;15.80;77.00;;;;;;4099681;28;20024;-84
2023/09/17 07:08:59;;;;;;;;;;;15.80;77.30;;;;;;4098469;28;20645;-84
2023/09/17 07:11:19;;;;;;;;;;;15.90;76.80;;;;;;4094962;28;19930;-86
2023/09/17 07:13:40;;;;;;;;;;;15.90;77.30;;;;;;4096476;28;20381;-85
2023/09/17 07:16:01;;;;;;;;;;;15.90;77.50;;;;;;4107690;28;20947;-84
2023/09/17 07:18:26;;;;;;;;;;;16.00;76.90;;;;;;4093168;28;20847;-86
2023/09/17 07:20:47;;;;;;;;;;;16.00;76.80;;;;;;4095304;28;20649;-86
2023/09/17 07:23:08;;;;;;;;;;;16.10;77.10;;;;;;4088482;28;22023;-85
2023/09/17 07:25:28;;;;;;;;;;;16.20;77.80;;;;;;4095210;28;19925;-85
2023/09/17 07:27:49;;;;;;;;;;;16.30;77.40;;;;;;4089920;28;19933;-84
2023/09/17 07:29:54;;;;;;;;;;;16.30;78.00;;;;;;4098442;28;19914;-85
2023/09/17 07:31:54;;;;;;;;;;;16.30;77.20;;;;;;4099002;28;19918;-86
2023/09/17 07:33:55;;;;;;;;;;;16.30;77.40;;;;;;4097986;28;19918;-86
2023/09/17 07:35:55;;;;;;;;;;;16.40;77.50;;;;;;4098976;28;19933;-86
2023/09/17 07:37:59;;;;;;;;;;;16.40;77.60;;;;;;4093588;28;20536;-85
2023/09/17 07:40:19;;;;;;;;;;;16.40;78.10;;;;;;4092474;28;19969;-86
2023/09/17 07:42:40;;;;;;;;;;;16.50;78.20;;;;;;4094112;28;20399;-85
2023/09/17 07:45:00;;;;;;;;;;;16.60;78.30;;;;;;4094134;28;20712;-86
2023/09/17 07:47:21;;;;;;;;;;;16.60;78.40;;;;;;4096317;28;20388;-84
2023/09/17 07:49:26;;;;;;;;;;;16.70;77.80;;;;;;4092260;28;19925;-86
2023/09/17 07:51:44;;;;;;;;;;;16.80;78.00;;;;;;4114310;28;19957;-86
2023/09/17 07:53:44;;;;;;;;;;;16.80;78.30;;;;;;4095907;28;19918;-85
2023/09/17 07:56:05;;;;;;;;;;;16.90;78.40;;;;;;4096961;28;21716;-86
2023/09/17 07:58:25;;;;;;;;;;;17.00;79.10;;;;;;4093943;28;20399;-83
2023/09/17 08:00:46;;;;;;;;;;;17.00;79.00;;;;;;4092662;28;20365;-86
2023/09/17 08:02:52;;;;;;;;;;;17.10;78.50;;;;;;4093249;28;20050;-86
2023/09/17 08:05:13;;;;;;;;;;;17.20;78.80;;;;;;4099225;28;20450;-86
2023/09/17 08:07:35;;;;;;;;;;;17.30;79.10;;;;;;4088475;28;20348;-85
2023/09/17 08:09:56;;;;;;;;;;;17.40;79.10;;;;;;4095668;28;20537;-84
2023/09/17 08:12:16;;;;;;;;;;;17.60;80.10;;;;;;4090024;28;20468;-85
2023/09/17 08:15:03;;;;;;;;;;;17.60;80.50;;;;;;4095557;28;21839;-89
2023/09/17 08:17:23;;;;;;;;;;;17.70;81.20;;;;;;4092948;28;20498;-85
2023/09/17 08:19:44;;;;;;;;;;;17.80;81.30;;;;;;4091556;28;19926;-85
2023/09/17 08:22:04;;;;;;;;;;;17.90;81.00;;;;;;4094054;28;20617;-84
2023/09/17 08:24:25;;;;;;;;;;;18.00;81.20;;;;;;4097227;28;19919;-86
2023/09/17 08:28:57;;;;;;;;;;;18.20;80.90;;;;;;3426254;26;19962;-88
2023/09/17 08:31:18;;;;;;;;;;;18.30;81.10;;;;;;4077352;28;20043;-88
2023/09/17 08:33:39;;;;;;;;;;;18.40;80.80;;;;;;4083089;28;20106;-87
2023/09/17 08:38:32;;;;;;;;;;;18.50;80.90;;;;;;4152256;23;19929;-87
2023/09/17 08:41:01;;;;;;;;;;;18.60;80.90;;;;;;4131084;28;19922;-87
2023/09/17 08:43:02;;;;;;;;;;;18.70;81.00;;;;;;4144345;28;20390;-86
2023/09/17 08:45:04;;;;;;;;;;;18.80;81.00;;;;;;4139129;28;20667;-86
2023/09/17 08:47:14;;;;;;;;;;;18.90;79.70;;;;;;4135351;28;19925;-87
2023/09/17 08:49:15;;;;;;;;;;;18.90;80.10;;;;;;4120475;28;19964;-85
2023/09/17 08:51:17;;;;;;;;;;;19.00;80.30;;;;;;4139864;28;19914;-85
2023/09/17 08:53:47;;;;;;;;;;;19.20;80.10;;;;;;4119123;28;20310;-85
2023/09/17 08:56:11;;;;;;;;;;;19.20;79.00;;;;;;4124591;28;19917;-86
2023/09/17 08:58:36;;;;;;;;;;;19.30;77.50;;;;;;4152941;28;20306;-86
2023/09/17 09:00:58;;;;;;;;;;;19.40;76.80;;;;;;4140021;28;20473;-85
2023/09/17 09:03:20;;;;;;;;;;;19.50;76.30;;;;;;4137845;28;19917;-85
2023/09/17 09:05:43;;;;;;;;;;;19.60;74.80;;;;;;4139914;28;20316;-86
2023/09/17 09:11:13;;;;;;;;;;;19.80;74.40;;;;;;4128014;28;20345;-86
2023/09/17 09:13:29;;;;;;;;;;;19.90;74.80;;;;;;4132652;28;19922;-88
2023/09/17 09:15:30;;;;;;;;;;;19.90;73.70;;;;;;4122598;28;19918;-86
2023/09/17 09:17:47;;;;;;;;;;;20.10;74.10;;;;;;4152037;28;19913;-85
2023/09/17 09:20:43;;;;;;;;;;;;;;;;;;;;;
2023/09/17 09:23:15;;;;;;;;;;;20.20;73.40;;;;;;4131916;28;19917;-85
2023/09/17 09:25:36;;;;;;;;;;;20.40;73.40;;;;;;4148976;28;19941;-84
2023/09/17 09:28:17;;;;;;;;;;;20.40;72.50;;;;;;4159537;28;19936;-85
2023/09/17 09:30:18;;;;;;;;;;;20.50;72.70;;;;;;4159320;28;19945;-87
2023/09/17 09:32:40;;;;;;;;;;;20.50;72.70;;;;;;4145770;28;19922;-85
2023/09/17 09:35:01;;;;;;;;;;;20.60;72.50;;;;;;4139333;28;21018;-86
2023/09/17 09:37:28;;;;;;;;;;;20.60;72.30;;;;;;4141547;28;20377;-84
2023/09/17 09:39:48;;;;;;;;;;;20.70;72.50;;;;;;4136194;28;20311;-84
2023/09/17 09:42:11;;;;;;;;;;;20.70;72.50;;;;;;4138734;28;20318;-83
2023/09/17 09:44:32;;;;;;;;;;;20.80;72.10;;;;;;4140096;28;19913;-84
2023/09/17 09:46:56;;;;;;;;;;;20.90;72.20;;;;;;4141358;28;20337;-84
2023/09/17 09:49:17;;;;;;;;;;;20.90;72.10;;;;;;4143007;28;20361;-84
2023/09/17 09:51:18;;;;;;;;;;;20.90;71.60;;;;;;4143011;28;19914;-83
2023/09/17 09:53:19;;;;;;;;;;;20.90;71.50;;;;;;4160741;28;20951;-84
2023/09/17 09:55:24;;;;;;;;;;;20.90;71.50;;;;;;4159018;28;19922;-84
2023/09/17 09:57:25;;;;;;;;;;;21.00;71.30;;;;;;4146364;28;20291;-84
2023/09/17 09:59:33;;;;;;;;;;;20.90;71.30;;;;;;4137672;28;19952;-85
2023/09/17 10:01:53;;;;;;;;;;;21.00;70.80;;;;;;4132987;28;20015;-83
2023/09/17 10:04:00;;;;;;;;;;;21.00;70.60;;;;;;4139218;28;20393;-84
2023/09/17 10:06:21;;;;;;;;;;;21.00;70.80;;;;;;4136628;28;20424;-84
2023/09/17 10:08:41;;;;;;;;;;;21.00;70.50;;;;;;4138665;28;20397;-85
2023/09/17 10:11:03;;;;;;;;;;;21.10;70.80;;;;;;4137259;28;20283;-85
2023/09/17 10:13:24;;;;;;;;;;;21.10;70.70;;;;;;4136015;28;20778;-84
2023/09/17 10:15:46;;;;;;;;;;;21.10;70.40;;;;;;4132037;28;20426;-84
2023/09/17 10:18:10;;;;;;;;;;;21.20;70.80;;;;;;4131763;28;19921;-83
2023/09/17 10:20:31;;;;;;;;;;;21.20;70.40;;;;;;4135712;28;19922;-84
2023/09/17 10:22:52;;;;;;;;;;;21.20;70.40;;;;;;4140149;28;20648;-83
2023/09/17 10:25:14;;;;;;;;;;;21.30;70.00;;;;;;4139866;28;19921;-84
2023/09/17 10:27:36;;;;;;;;;;;21.40;70.40;;;;;;4137651;28;19940;-83
2023/09/17 10:29:57;;;;;;;;;;;21.40;68.90;;;;;;4133630;28;19991;-85
2023/09/17 10:32:18;;;;;;;;;;;21.60;70.00;;;;;;4134535;28;20031;-86
2023/09/17 10:34:39;;;;;;;;;;;21.60;68.40;;;;;;4134728;28;19913;-84
2023/09/17 10:36:42;;;;;;;;;;;21.70;69.20;;;;;;4134003;28;19921;-84
2023/09/17 10:38:43;;;;;;;;;;;21.80;69.20;;;;;;4134625;28;19921;-85
2023/09/17 10:40:43;;;;;;;;;;;22.00;69.60;;;;;;4146755;28;19919;-85
2023/09/17 10:42:47;;;;;;;;;;;22.10;69.60;;;;;;4131898;28;19921;-86
2023/09/17 10:44:57;;;;;;;;;;;22.10;67.10;;;;;;4131193;28;20013;-84
2023/09/17 10:47:01;;;;;;;;;;;22.20;60.80;;;;;;4131952;28;19953;-86
2023/09/17 10:49:22;;;;;;;;;;;22.30;62.00;;;;;;4134471;28;19917;-84
2023/09/17 10:51:34;;;;;;;;;;;22.40;64.30;;;;;;4131708;28;19922;-84
2023/09/17 10:53:55;;;;;;;;;;;22.50;63.70;;;;;;4131631;28;19928;-85
2023/09/17 10:56:16;;;;;;;;;;;22.60;60.10;;;;;;4135270;28;19944;-86
2023/09/17 10:58:43;;;;;;;;;;;22.70;63.60;;;;;;4149127;28;20056;-84
2023/09/17 11:01:06;;;;;;;;;;;22.80;63.50;;;;;;4134378;28;19984;-85
2023/09/17 11:03:29;;;;;;;;;;;22.90;62.90;;;;;;4133799;28;19917;-85
2023/09/17 11:05:50;;;;;;;;;;;23.00;63.30;;;;;;4133239;28;19988;-86
2023/09/17 11:08:11;;;;;;;;;;;23.10;63.40;;;;;;4134632;28;20458;-84
2023/09/17 11:10:33;;;;;;;;;;;23.10;59.10;;;;;;4130591;28;19955;-84
2023/09/17 11:12:53;;;;;;;;;;;23.20;60.30;;;;;;4131573;28;19918;-86
2023/09/17 11:15:16;;;;;;;;;;;23.30;60.50;;;;;;4131301;28;19944;-85
2023/09/17 11:17:37;;;;;;;;;;;23.30;61.00;;;;;;4127818;28;19917;-84
2023/09/17 11:19:59;;;;;;;;;;;23.40;61.40;;;;;;4128524;28;19926;-85
2023/09/17 11:22:19;;;;;;;;;;;23.40;61.30;;;;;;4130286;28;19944;-85
2023/09/17 11:24:44;;;;;;;;;;;23.40;61.40;;;;;;4127523;28;19922;-84
2023/09/17 11:26:47;;;;;;;;;;;23.60;61.10;;;;;;4127499;28;20409;-86
2023/09/17 11:28:55;;;;;;;;;;;23.50;57.30;;;;;;4128526;28;19917;-85
2023/09/17 11:30:56;;;;;;;;;;;23.60;59.60;;;;;;4148348;28;19944;-85
2023/09/17 11:32:57;;;;;;;;;;;23.70;59.60;;;;;;4129662;28;19918;-85
2023/09/17 11:38:21;;;;;;;;;;;23.70;57.20;;;;;;4132744;28;20581;-85
2023/09/17 11:40:42;;;;;;;;;;;23.70;54.70;;;;;;4129413;28;19926;-83
2023/09/17 11:43:03;;;;;;;;;;;23.80;56.90;;;;;;4132162;28;19957;-83
2023/09/17 11:45:29;;;;;;;;;;;23.80;56.30;;;;;;4117131;28;19925;-84
2023/09/17 11:48:26;;;;;;;;;;;23.70;53.60;;;;;;4123017;28;20078;-84
2023/09/17 11:50:27;;;;;;;;;;;23.70;54.40;;;;;;4135258;28;19914;-83
2023/09/17 11:52:27;;;;;;;;;;;23.80;54.50;;;;;;4138025;28;19918;-83
2023/09/17 11:54:34;;;;;;;;;;;23.80;55.70;;;;;;4132901;28;19933;-83
2023/09/17 11:56:55;;;;;;;;;;;23.70;54.20;;;;;;4135009;28;19975;-84
2023/09/17 11:59:15;;;;;;;;;;;23.70;55.50;;;;;;4115049;28;19968;-84
2023/09/17 12:01:19;;;;;;;;;;;23.70;54.90;;;;;;4131680;28;19925;-83
2023/09/17 12:03:22;;;;;;;;;;;23.80;56.20;;;;;;4128607;28;19940;-85
2023/09/17 12:05:23;;;;;;;;;;;23.80;56.10;;;;;;4133191;28;19979;-86
2023/09/17 12:07:25;;;;;;;;;;;23.80;56.80;;;;;;4130543;28;20529;-86
2023/09/17 12:12:19;;;;;;;;;;;23.80;56.60;;;;;;4123182;28;19928;-85
2023/09/17 12:17:37;;;;;;;;;;;23.80;55.80;;;;;;4128191;28;19918;-85
2023/09/17 12:21:09;;;;;;;;;;;23.90;56.00;;;;;;4131195;28;19933;-84
2023/09/17 12:23:04;;;;;;;;;;;23.90;56.20;;;;;;4129401;28;19921;-84
2023/09/17 12:25:26;;;;;;;;;;;23.90;55.60;;;;;;4135965;28;19922;-84
2023/09/17 12:27:46;;;;;;;;;;;23.90;54.90;;;;;;4142276;28;19921;-86
2023/09/17 12:30:08;;;;;;;;;;;23.90;55.60;;;;;;4137660;28;20176;-87
2023/09/17 12:32:30;;;;;;;;;;;23.90;55.40;;;;;;4138104;28;19914;-88
2023/09/17 12:34:52;;;;;;;;;;;24.00;55.50;;;;;;4140648;28;20002;-87
2023/09/17 12:37:12;;;;;;;;;;;24.00;54.80;;;;;;4140652;28;19917;-86
2023/09/17 12:39:33;;;;;;;;;;;24.00;55.60;;;;;;4137401;28;19932;-90
2023/09/17 12:41:34;;;;;;;;;;;24.00;55.70;;;;;;4135334;28;20398;-88
2023/09/17 12:43:34;;;;;;;;;;;24.00;55.70;;;;;;4154466;28;19956;-88
2023/09/17 12:45:37;;;;;;;;;;;24.00;55.20;;;;;;4124154;28;20426;-89
2023/09/17 12:47:57;;;;;;;;;;;24.10;55.80;;;;;;4141890;28;19933;-86
2023/09/17 12:50:18;;;;;;;;;;;24.10;53.70;;;;;;4129345;28;19929;-86
2023/09/17 12:52:42;;;;;;;;;;;24.10;55.40;;;;;;4131245;28;19944;-85
2023/09/17 12:55:03;;;;;;;;;;;24.10;55.10;;;;;;4130866;28;19925;-86
2023/09/17 12:57:07;;;;;;;;;;;24.10;55.40;;;;;;4137958;28;20424;-86
2023/09/17 12:59:10;;;;;;;;;;;24.10;55.30;;;;;;4138625;28;19977;-87
2023/09/17 13:01:11;;;;;;;;;;;24.20;55.50;;;;;;4134514;28;20666;-87
2023/09/17 13:03:13;;;;;;;;;;;24.10;54.20;;;;;;4138833;28;19913;-86
2023/09/17 13:05:18;;;;;;;;;;;24.20;54.50;;;;;;4154419;28;20445;-86
2023/09/17 13:07:20;;;;;;;;;;;24.20;54.80;;;;;;4152378;28;19921;-88
2023/09/17 13:09:20;;;;;;;;;;;24.20;54.80;;;;;;4139254;28;19920;-86
2023/09/17 13:11:24;;;;;;;;;;;24.20;52.50;;;;;;4151778;28;19917;-87
2023/09/17 13:13:25;;;;;;;;;;;24.20;54.00;;;;;;4138441;28;19928;-85
2023/09/17 13:15:25;;;;;;;;;;;24.20;53.40;;;;;;4141627;28;19909;-85
2023/09/17 13:17:27;;;;;;;;;;;24.20;53.50;;;;;;4141300;28;20395;-86
2023/09/17 13:19:27;;;;;;;;;;;24.10;53.90;;;;;;4137812;28;20367;-86